createdAt,value
2023-04-23T00:01:59.603Z,70.82
2023-04-23T00:04:29.017Z,70.89
2023-04-23T00:06:58.106Z,70.60
2023-04-23T00:09:30.215Z,70.55
2023-04-23T00:11:58.822Z,70.45
2023-04-23T00:14:26.935Z,70.75
2023-04-23T00:16:55.113Z,71.25
2023-04-23T00:19:23.433Z,70.94
2023-04-23T00:21:51.595Z,70.83
2023-04-23T00:24:20.444Z,70.92
2023-04-23T00:26:48.307Z,71.03
2023-04-23T00:29:16.095Z,70.69
2023-04-23T00:31:44.117Z,70.91
2023-04-23T00:34:12.601Z,70.85
2023-04-23T00:36:40.609Z,71.01
2023-04-23T00:39:08.609Z,71.26
2023-04-23T00:41:36.363Z,71.62
2023-04-23T00:44:04.757Z,71.55
2023-04-23T00:46:32.703Z,71.59
2023-04-23T00:49:01.637Z,71.98
2023-04-23T00:51:30.218Z,72.19
2023-04-23T00:53:58.342Z,72.16
2023-04-23T00:56:27.407Z,71.98
2023-04-23T00:58:55.446Z,71.91
2023-04-23T01:01:23.825Z,71.90
2023-04-23T01:03:53.780Z,72.05
2023-04-23T01:06:25.149Z,72.03
2023-04-23T01:08:53.175Z,72.06
2023-04-23T01:11:21.109Z,72.36
2023-04-23T01:13:48.982Z,72.22
2023-04-23T01:16:17.640Z,72.38
2023-04-23T01:18:46.034Z,72.45
2023-04-23T01:21:15.252Z,72.60
2023-04-23T01:23:43.375Z,72.55
2023-04-23T01:26:11.590Z,73.43
2023-04-23T01:28:39.603Z,73.42
2023-04-23T01:31:14.424Z,73.01
2023-04-23T01:33:43.269Z,72.97
2023-04-23T01:36:12.363Z,72.90
2023-04-23T01:38:41.002Z,72.88
2023-04-23T01:41:09.308Z,73.36
2023-04-23T01:43:38.240Z,74.42
2023-04-23T01:46:06.499Z,74.66
2023-04-23T01:48:35.232Z,74.06
2023-04-23T01:51:05.813Z,74.06
2023-04-23T01:53:33.590Z,73.90
2023-04-23T01:56:02.909Z,73.93
2023-04-23T01:58:31.134Z,73.53
2023-04-23T02:00:59.090Z,73.29
2023-04-23T02:03:32.077Z,73.83
2023-04-23T02:06:00.949Z,73.90
2023-04-23T02:08:28.754Z,74.97
2023-04-23T02:10:57.359Z,75.08
2023-04-23T02:13:25.867Z,74.96
2023-04-23T02:15:53.885Z,74.46
2023-04-23T02:18:21.759Z,73.99
2023-04-23T02:20:49.645Z,74.11
2023-04-23T02:23:17.526Z,73.96
2023-04-23T02:25:46.184Z,74.52
2023-04-23T02:28:14.748Z,75.27
2023-04-23T02:30:47.966Z,75.13
2023-04-23T02:33:16.150Z,74.81
2023-04-23T02:35:44.041Z,75.71
2023-04-23T02:38:11.818Z,76.57
2023-04-23T02:40:40.300Z,76.99
2023-04-23T02:43:08.772Z,77.02
2023-04-23T02:45:36.851Z,77.69
2023-04-23T02:48:04.917Z,77.92
2023-04-23T02:50:32.810Z,76.78
2023-04-23T02:53:00.730Z,76.32
2023-04-23T02:55:32.050Z,76.31
2023-04-23T02:58:00.650Z,76.71
2023-04-23T03:00:28.918Z,76.95
2023-04-23T03:02:57.391Z,78.00
2023-04-23T03:05:25.414Z,77.33
2023-04-23T03:07:54.025Z,77.12
2023-04-23T03:10:21.937Z,78.44
2023-04-23T03:12:50.047Z,77.93
2023-04-23T03:15:18.179Z,77.42
2023-04-23T03:17:46.068Z,76.96
2023-04-23T03:20:14.731Z,76.68
2023-04-23T03:22:42.591Z,76.34
2023-04-23T03:25:10.488Z,76.26
2023-04-23T03:27:40.742Z,76.29
2023-04-23T03:30:09.556Z,76.12
2023-04-23T03:32:37.404Z,75.90
2023-04-23T03:35:05.820Z,75.97
2023-04-23T03:37:33.630Z,75.89
2023-04-23T03:40:07.152Z,75.91
2023-04-23T03:42:35.983Z,76.24
2023-04-23T03:45:04.617Z,76.00
2023-04-23T03:47:32.488Z,75.82
2023-04-23T03:50:01.103Z,75.91
2023-04-23T03:52:36.877Z,75.93
2023-04-23T03:55:05.819Z,76.20
2023-04-23T03:57:34.072Z,76.15
2023-04-23T04:00:02.848Z,77.21
2023-04-23T04:02:31.116Z,77.51
2023-04-23T04:05:00.103Z,77.19
2023-04-23T04:07:28.812Z,76.45
2023-04-23T04:09:56.653Z,76.34
2023-04-23T04:12:24.522Z,76.58
2023-04-23T04:14:52.313Z,76.86
2023-04-23T04:17:20.813Z,77.17
2023-04-23T04:19:48.666Z,76.95
2023-04-23T04:22:16.837Z,76.81
2023-04-23T04:24:47.735Z,76.80
2023-04-23T04:27:15.933Z,76.51
2023-04-23T04:29:44.821Z,77.14
2023-04-23T04:32:13.888Z,77.43
2023-04-23T04:34:41.956Z,77.34
2023-04-23T04:37:11.548Z,77.12
2023-04-23T04:39:39.419Z,77.35
2023-04-23T04:42:08.056Z,77.56
2023-04-23T04:44:37.852Z,77.30
2023-04-23T04:47:08.240Z,76.94
2023-04-23T04:49:36.300Z,76.76
2023-04-23T04:52:04.165Z,76.69
2023-04-23T04:54:32.781Z,76.58
2023-04-23T04:57:02.430Z,76.39
2023-04-23T04:59:30.365Z,76.00
2023-04-23T05:01:58.972Z,75.64
2023-04-23T05:04:26.860Z,75.09
2023-04-23T05:06:54.942Z,74.81
2023-04-23T05:09:23.426Z,74.75
2023-04-23T05:11:51.994Z,74.65
2023-04-23T05:14:19.793Z,74.38
2023-04-23T05:16:47.652Z,74.33
2023-04-23T05:19:15.601Z,74.15
2023-04-23T05:21:43.822Z,73.77
2023-04-23T05:24:12.332Z,73.67
2023-04-23T05:26:40.533Z,73.41
2023-04-23T05:29:08.289Z,73.19
2023-04-23T05:31:36.478Z,72.77
2023-04-23T05:34:04.340Z,72.67
2023-04-23T05:36:32.356Z,72.54
2023-04-23T05:39:00.855Z,72.60
2023-04-23T05:41:28.803Z,72.30
2023-04-23T05:43:56.598Z,72.15
2023-04-23T05:46:24.609Z,71.91
2023-04-23T05:48:53.766Z,71.53
2023-04-23T05:51:22.317Z,71.37
2023-04-23T05:53:50.901Z,71.11
2023-04-23T05:56:18.782Z,70.86
2023-04-23T05:58:46.912Z,70.65
2023-04-23T06:01:14.818Z,70.37
2023-04-23T06:03:46.052Z,70.22
2023-04-23T06:06:14.419Z,70.15
2023-04-23T06:08:42.768Z,69.93
2023-04-23T06:11:10.561Z,69.90
2023-04-23T06:13:43.081Z,69.88
2023-04-23T06:16:11.618Z,69.41
2023-04-23T06:18:39.802Z,69.26
2023-04-23T06:21:08.824Z,69.15
2023-04-23T06:23:36.956Z,68.98
2023-04-23T06:26:05.638Z,68.81
2023-04-23T06:28:33.557Z,68.67
2023-04-23T06:31:02.771Z,68.49
2023-04-23T06:33:31.391Z,68.40
2023-04-23T06:35:59.232Z,68.38
2023-04-23T06:38:27.042Z,68.05
2023-04-23T06:41:00.368Z,67.87
2023-04-23T06:43:31.301Z,67.85
2023-04-23T06:45:59.189Z,67.40
2023-04-23T06:48:27.477Z,67.32
2023-04-23T06:50:55.528Z,66.99
2023-04-23T06:53:23.416Z,66.57
2023-04-23T06:55:51.640Z,66.29
2023-04-23T06:58:19.433Z,65.82
2023-04-23T07:00:47.361Z,65.29
2023-04-23T07:03:15.923Z,64.96
2023-04-23T07:05:43.876Z,64.67
2023-04-23T07:08:11.705Z,64.43
2023-04-23T07:10:39.553Z,64.61
2023-04-23T07:13:07.526Z,64.44
2023-04-23T07:15:35.750Z,64.06
2023-04-23T07:18:05.101Z,63.66
2023-04-23T07:20:33.295Z,63.33
2023-04-23T07:23:01.223Z,63.28
2023-04-23T07:25:28.974Z,63.01
2023-04-23T07:27:57.259Z,62.74
2023-04-23T07:30:26.561Z,62.61
2023-04-23T07:32:55.880Z,62.30
2023-04-23T07:35:23.836Z,62.28
2023-04-23T07:37:53.931Z,62.50
2023-04-23T07:40:22.598Z,61.96
2023-04-23T07:42:51.840Z,61.82
2023-04-23T07:45:20.132Z,61.74
2023-04-23T07:47:50.216Z,61.82
2023-04-23T07:50:18.008Z,61.46
2023-04-23T07:52:45.888Z,61.29
2023-04-23T07:55:13.680Z,61.29
2023-04-23T07:57:41.447Z,61.13
2023-04-23T08:00:11.379Z,61.21
2023-04-23T08:02:39.314Z,60.82
2023-04-23T08:05:08.370Z,60.40
2023-04-23T08:07:36.342Z,60.48
2023-04-23T08:10:06.238Z,60.56
2023-04-23T08:12:36.027Z,60.04
2023-04-23T08:15:04.921Z,59.54
2023-04-23T08:17:33.184Z,58.96
2023-04-23T08:20:01.490Z,58.87
2023-04-23T08:22:29.353Z,58.50
2023-04-23T08:24:57.164Z,58.11
2023-04-23T08:27:25.013Z,58.44
2023-04-23T08:29:52.790Z,58.46
2023-04-23T08:32:21.512Z,58.10
2023-04-23T08:34:49.377Z,57.73
2023-04-23T08:37:29.699Z,57.55
2023-04-23T08:39:58.525Z,57.67
2023-04-23T08:42:49.030Z,57.45
2023-04-23T08:45:18.260Z,57.05
2023-04-23T08:47:46.047Z,56.72
2023-04-23T08:50:20.205Z,56.59
2023-04-23T08:52:52.967Z,56.10
2023-04-23T08:55:22.856Z,56.20
2023-04-23T08:57:51.597Z,56.04
2023-04-23T09:00:21.596Z,55.80
2023-04-23T09:02:50.271Z,55.53
2023-04-23T09:05:18.579Z,56.13
2023-04-23T09:07:46.914Z,56.45
2023-04-23T09:10:18.402Z,55.71
2023-04-23T09:12:48.291Z,55.67
2023-04-23T09:15:17.148Z,55.33
2023-04-23T09:17:47.241Z,55.26
2023-04-23T09:20:15.632Z,55.74
2023-04-23T09:22:47.621Z,55.09
2023-04-23T09:25:18.306Z,55.27
2023-04-23T09:27:47.666Z,54.64
2023-04-23T09:30:16.836Z,54.05
2023-04-23T09:32:46.206Z,53.83
2023-04-23T09:35:22.284Z,53.84
2023-04-23T09:37:52.942Z,54.32
2023-04-23T09:40:24.022Z,54.42
2023-04-23T09:42:54.512Z,54.18
2023-04-23T09:45:25.770Z,53.42
2023-04-23T09:47:56.107Z,53.63
2023-04-23T09:50:35.446Z,53.28
2023-04-23T09:53:04.238Z,53.03
2023-04-23T09:55:43.039Z,52.94
2023-04-23T09:58:13.747Z,52.74
2023-04-23T10:00:42.828Z,52.89
2023-04-23T10:03:12.066Z,52.41
2023-04-23T10:08:14.557Z,52.59
2023-04-23T10:13:19.161Z,52.97
2023-04-23T10:15:48.802Z,52.00
2023-04-23T10:18:17.250Z,52.33
2023-04-23T10:20:45.596Z,52.14
2023-04-23T10:23:14.957Z,51.47
2023-04-23T10:25:42.867Z,51.38
2023-04-23T10:28:12.431Z,50.38
2023-04-23T10:30:42.844Z,49.68
2023-04-23T10:33:22.383Z,48.37
2023-04-23T10:35:58.152Z,50.02
2023-04-23T10:38:28.442Z,50.46
2023-04-23T10:40:58.882Z,50.85
2023-04-23T10:43:26.874Z,49.43
2023-04-23T10:45:54.635Z,47.95
2023-04-23T10:48:23.177Z,48.53
2023-04-23T10:51:17.449Z,48.84
2023-04-23T10:53:47.057Z,48.65
2023-04-23T10:56:16.343Z,48.28
2023-04-23T10:58:48.763Z,48.38
2023-04-23T11:01:18.112Z,48.87
2023-04-23T11:03:46.056Z,48.39
2023-04-23T11:06:20.306Z,48.07
2023-04-23T11:08:54.229Z,47.41
2023-04-23T11:11:40.378Z,47.28
2023-04-23T11:14:15.762Z,47.32
2023-04-23T11:16:43.825Z,46.82
2023-04-23T11:19:12.991Z,46.77
2023-04-23T11:22:01.187Z,47.25
2023-04-23T11:24:37.498Z,45.79
2023-04-23T11:27:07.432Z,45.27
2023-04-23T11:29:37.870Z,47.32
2023-04-23T11:32:10.741Z,46.70
2023-04-23T11:34:40.461Z,46.15
2023-04-23T11:37:13.677Z,47.14
2023-04-23T11:39:47.636Z,46.51
2023-04-23T11:42:17.621Z,46.43
2023-04-23T11:44:46.253Z,46.83
2023-04-23T11:47:19.209Z,46.71
2023-04-23T11:49:48.906Z,47.23
2023-04-23T11:52:17.475Z,46.50
2023-04-23T11:54:45.453Z,46.56
2023-04-23T11:57:14.637Z,46.74
2023-04-23T11:59:42.661Z,46.72
2023-04-23T12:02:10.826Z,45.78
2023-04-23T12:04:41.034Z,41.99
2023-04-23T12:07:19.633Z,43.59
2023-04-23T12:09:59.224Z,42.80
2023-04-23T12:12:34.663Z,43.21
2023-04-23T12:15:07.501Z,43.80
2023-04-23T12:17:36.177Z,43.56
2023-04-23T12:20:07.235Z,43.78
2023-04-23T12:22:35.034Z,43.90
2023-04-23T12:25:09.718Z,43.81
2023-04-23T12:27:42.674Z,42.49
2023-04-23T12:30:12.040Z,42.39
2023-04-23T12:32:41.405Z,43.17
2023-04-23T12:35:11.338Z,42.76
2023-04-23T12:37:39.165Z,43.20
2023-04-23T12:40:07.410Z,44.12
2023-04-23T12:42:36.453Z,43.68
2023-04-23T12:45:10.064Z,43.38
2023-04-23T12:47:38.001Z,43.44
2023-04-23T12:50:06.721Z,42.84
2023-04-23T12:52:34.566Z,42.48
2023-04-23T12:55:05.083Z,41.92
2023-04-23T12:57:33.473Z,42.08
2023-04-23T13:00:01.320Z,42.53
2023-04-23T13:02:29.476Z,43.22
2023-04-23T13:05:01.297Z,42.90
2023-04-23T13:07:29.332Z,42.72
2023-04-23T13:09:59.522Z,42.46
2023-04-23T13:12:27.994Z,42.57
2023-04-23T13:14:56.594Z,43.21
2023-04-23T13:17:26.549Z,42.36
2023-04-23T13:19:56.160Z,42.40
2023-04-23T13:22:28.700Z,41.85
2023-04-23T13:24:57.243Z,41.20
2023-04-23T13:27:27.369Z,42.05
2023-04-23T13:29:55.864Z,41.36
2023-04-23T13:32:32.075Z,41.41
2023-04-23T13:35:05.253Z,41.40
2023-04-23T13:37:33.883Z,41.65
2023-04-23T13:40:02.678Z,41.12
2023-04-23T13:42:30.495Z,40.26
2023-04-23T13:44:58.298Z,40.26
2023-04-23T13:47:30.577Z,40.74
2023-04-23T13:49:58.509Z,40.13
2023-04-23T13:52:27.192Z,40.94
2023-04-23T13:54:57.213Z,40.84
2023-04-23T13:57:25.357Z,40.27
2023-04-23T13:59:55.389Z,40.50
2023-04-23T14:02:24.203Z,40.56
2023-04-23T14:04:52.585Z,40.98
2023-04-23T14:07:21.346Z,40.87
2023-04-23T14:09:52.878Z,40.51
2023-04-23T14:12:21.073Z,40.34
2023-04-23T14:14:48.872Z,40.84
2023-04-23T14:17:16.670Z,41.08
2023-04-23T14:19:44.919Z,40.35
2023-04-23T14:22:13.552Z,40.98
2023-04-23T14:24:46.322Z,41.24
2023-04-23T14:27:14.083Z,40.12
2023-04-23T14:29:51.287Z,40.62
2023-04-23T14:32:19.619Z,40.64
2023-04-23T14:34:47.428Z,40.04
2023-04-23T14:37:17.237Z,40.35
2023-04-23T14:39:46.677Z,40.79
2023-04-23T14:42:14.593Z,40.20
2023-04-23T14:44:43.183Z,40.48
2023-04-23T14:47:11.971Z,40.10
2023-04-23T14:49:41.828Z,40.17
2023-04-23T14:52:10.642Z,40.00
2023-04-23T14:54:38.614Z,40.05
2023-04-23T14:57:07.041Z,40.87
2023-04-23T14:59:35.271Z,40.37
2023-04-23T15:02:03.497Z,40.22
2023-04-23T15:04:31.618Z,40.05
2023-04-23T15:06:59.538Z,40.25
2023-04-23T15:09:27.874Z,40.24
2023-04-23T15:11:56.250Z,40.31
2023-04-23T15:14:37.468Z,40.04
2023-04-23T15:17:05.236Z,40.40
2023-04-23T15:19:33.100Z,39.59
2023-04-23T15:22:01.367Z,39.39
2023-04-23T15:24:29.843Z,39.20
2023-04-23T15:26:59.445Z,39.46
2023-04-23T15:29:27.844Z,40.61
2023-04-23T15:31:58.474Z,41.17
2023-04-23T15:34:26.591Z,41.02
2023-04-23T15:36:55.418Z,40.63
2023-04-23T15:39:27.772Z,40.87
2023-04-23T15:41:57.316Z,40.69
2023-04-23T15:44:26.674Z,41.09
2023-04-23T15:47:01.314Z,41.51
2023-04-23T15:49:30.211Z,41.48
2023-04-23T15:51:59.121Z,41.64
2023-04-23T15:54:31.474Z,41.93
2023-04-23T15:57:03.862Z,41.77
2023-04-23T15:59:32.215Z,42.27
2023-04-23T16:02:00.325Z,42.39
2023-04-23T16:04:28.721Z,42.85
2023-04-23T16:07:02.976Z,42.75
2023-04-23T16:09:33.910Z,43.08
2023-04-23T16:12:02.654Z,42.86
2023-04-23T16:14:31.146Z,42.99
2023-04-23T16:16:59.156Z,43.81
2023-04-23T16:19:28.518Z,43.56
2023-04-23T16:21:56.508Z,43.41
2023-04-23T16:24:24.804Z,43.45
2023-04-23T16:26:52.597Z,43.05
2023-04-23T16:29:22.998Z,43.08
2023-04-23T16:31:51.248Z,43.34
2023-04-23T16:34:19.166Z,43.25
2023-04-23T16:36:47.439Z,43.43
2023-04-23T16:39:15.590Z,43.62
2023-04-23T16:41:44.253Z,43.79
2023-04-23T16:44:12.639Z,44.01
2023-04-23T16:46:42.595Z,44.07
2023-04-23T16:49:10.701Z,43.89
2023-04-23T16:51:39.357Z,43.91
2023-04-23T16:54:09.995Z,44.16
2023-04-23T16:56:38.578Z,44.83
2023-04-23T16:59:06.433Z,45.18
2023-04-23T17:01:34.389Z,45.75
2023-04-23T17:04:02.906Z,44.88
2023-04-23T17:06:32.473Z,44.70
2023-04-23T17:09:02.448Z,44.76
2023-04-23T17:11:31.671Z,44.77
2023-04-23T17:13:59.690Z,44.66
2023-04-23T17:16:27.937Z,44.81
2023-04-23T17:18:56.369Z,45.04
2023-04-23T17:21:24.802Z,45.07
2023-04-23T17:23:53.171Z,45.20
2023-04-23T17:26:21.543Z,45.45
2023-04-23T17:28:49.357Z,45.50
2023-04-23T17:31:18.220Z,45.72
2023-04-23T17:33:49.328Z,45.85
2023-04-23T17:36:17.695Z,46.28
2023-04-23T17:38:45.982Z,46.68
2023-04-23T17:41:14.378Z,46.84
2023-04-23T17:43:42.722Z,47.39
2023-04-23T17:46:10.620Z,48.16
2023-04-23T17:48:38.497Z,48.40
2023-04-23T17:51:06.745Z,48.78
2023-04-23T17:53:35.091Z,48.64
2023-04-23T17:56:03.458Z,48.82
2023-04-23T17:58:31.681Z,48.86
2023-04-23T18:00:59.643Z,48.93
2023-04-23T18:03:27.996Z,48.91
2023-04-23T18:05:56.115Z,49.61
2023-04-23T18:08:24.341Z,50.14
2023-04-23T18:10:52.695Z,50.46
2023-04-23T18:13:20.546Z,50.47
2023-04-23T18:15:50.142Z,50.79
2023-04-23T18:18:19.608Z,51.11
2023-04-23T18:20:47.694Z,51.28
2023-04-23T18:23:16.119Z,51.43
2023-04-23T18:25:44.681Z,51.72
2023-04-23T18:28:12.725Z,51.88
2023-04-23T18:30:40.724Z,51.89
2023-04-23T18:33:25.424Z,51.84
2023-04-23T18:35:59.451Z,51.78
2023-04-23T18:38:39.164Z,51.87
2023-04-23T18:41:06.958Z,51.92
2023-04-23T18:43:34.720Z,52.17
2023-04-23T18:46:03.935Z,52.31
2023-04-23T18:48:34.802Z,52.26
2023-04-23T18:51:33.370Z,52.65
2023-04-23T18:54:01.841Z,52.50
2023-04-23T18:56:33.975Z,52.63
2023-04-23T18:59:01.972Z,53.02
2023-04-23T19:01:46.146Z,53.08
2023-04-23T19:04:16.370Z,53.32
2023-04-23T19:06:44.842Z,53.40
2023-04-23T19:09:12.596Z,53.43
2023-04-23T19:11:40.614Z,53.52
2023-04-23T19:14:08.374Z,53.68
2023-04-23T19:16:36.351Z,53.92
2023-04-23T19:19:04.725Z,53.82
2023-04-23T19:21:32.585Z,53.87
2023-04-23T19:24:00.428Z,54.10
2023-04-23T19:26:28.320Z,54.34
2023-04-23T19:28:56.114Z,54.44
2023-04-23T19:31:24.128Z,54.54
2023-04-23T19:33:52.485Z,54.67
2023-04-23T19:36:21.061Z,54.87
2023-04-23T19:38:49.273Z,54.85
2023-04-23T19:41:17.079Z,55.07
2023-04-23T19:43:44.836Z,55.03
2023-04-23T19:46:12.757Z,55.31
2023-04-23T19:48:41.789Z,55.26
2023-04-23T19:51:10.166Z,55.54
2023-04-23T19:53:37.972Z,55.60
2023-04-23T19:56:08.716Z,55.77
2023-04-23T19:58:36.651Z,55.73
2023-04-23T20:01:04.922Z,55.71
2023-04-23T20:03:34.985Z,55.96
2023-04-23T20:06:02.890Z,56.18
2023-04-23T20:08:41.558Z,56.32
2023-04-23T20:11:13.472Z,56.29
2023-04-23T20:13:43.022Z,56.48
2023-04-23T20:16:12.445Z,56.53
2023-04-23T20:18:40.302Z,56.57
2023-04-23T20:21:09.352Z,56.71
2023-04-23T20:23:37.273Z,56.67
2023-04-23T20:26:07.519Z,56.66
2023-04-23T20:28:36.012Z,56.88
2023-04-23T20:31:03.832Z,57.01
2023-04-23T20:33:31.556Z,56.90
2023-04-23T20:36:01.671Z,57.15
2023-04-23T20:38:33.370Z,57.18
2023-04-23T20:41:02.639Z,57.21
2023-04-23T20:43:34.377Z,57.24
2023-04-23T20:46:03.099Z,57.24
2023-04-23T20:48:31.132Z,57.32
2023-04-23T20:50:59.597Z,57.48
2023-04-23T20:53:28.719Z,57.55
2023-04-23T20:55:57.197Z,57.71
2023-04-23T20:58:25.632Z,57.63
2023-04-23T21:00:54.248Z,57.70
2023-04-23T21:03:22.578Z,57.73
2023-04-23T21:05:50.974Z,57.88
2023-04-23T21:08:19.288Z,57.96
2023-04-23T21:10:47.594Z,57.89
2023-04-23T21:13:15.408Z,57.87
2023-04-23T21:15:44.834Z,57.78
2023-04-23T21:18:12.762Z,57.69
2023-04-23T21:20:41.029Z,57.75
2023-04-23T21:23:11.142Z,57.75
2023-04-23T21:25:39.868Z,57.64
2023-04-23T21:28:07.696Z,57.62
2023-04-23T21:30:52.127Z,57.59
2023-04-23T21:33:22.606Z,57.60
2023-04-23T21:35:51.648Z,57.47
2023-04-23T21:38:20.596Z,57.59
2023-04-23T21:40:48.624Z,57.52
2023-04-23T21:43:17.084Z,57.58
2023-04-23T21:45:45.528Z,57.50
2023-04-23T21:48:13.552Z,57.63
2023-04-23T21:50:41.418Z,57.60
2023-04-23T21:53:09.951Z,57.63
2023-04-23T21:55:38.164Z,57.53
2023-04-23T21:58:17.389Z,57.54
2023-04-23T22:00:46.164Z,57.37
2023-04-23T22:03:17.325Z,57.36
2023-04-23T22:05:52.528Z,57.34
2023-04-23T22:08:20.403Z,57.29
2023-04-23T22:10:48.216Z,57.36
2023-04-23T22:13:16.461Z,57.26
2023-04-23T22:15:44.461Z,57.26
2023-04-23T22:18:12.324Z,57.34
2023-04-23T22:20:40.705Z,57.43
2023-04-23T22:23:08.546Z,57.41
2023-04-23T22:25:36.320Z,57.47
2023-04-23T22:28:04.100Z,57.51
2023-04-23T22:30:31.872Z,57.62
2023-04-23T22:32:59.788Z,57.68
2023-04-23T22:35:27.987Z,57.74
2023-04-23T22:37:56.521Z,57.69
2023-04-23T22:40:24.557Z,57.60
2023-04-23T22:42:52.384Z,57.60
2023-04-23T22:45:20.182Z,57.57
2023-04-23T22:47:48.448Z,57.62
2023-04-23T22:50:16.446Z,57.81
2023-04-23T22:52:44.850Z,57.78
2023-04-23T22:55:13.024Z,57.90
2023-04-23T22:57:41.026Z,57.93
2023-04-23T23:00:11.398Z,58.06
2023-04-23T23:02:39.299Z,58.16
2023-04-23T23:05:07.534Z,58.16
2023-04-23T23:07:35.297Z,58.29
2023-04-23T23:10:03.906Z,58.41
2023-04-23T23:12:31.791Z,58.43
2023-04-23T23:15:00.006Z,58.44
2023-04-23T23:17:27.872Z,58.71
2023-04-23T23:19:55.739Z,58.55
2023-04-23T23:22:23.569Z,58.44
2023-04-23T23:24:51.372Z,58.61
2023-04-23T23:27:19.213Z,58.67
2023-04-23T23:29:47.512Z,58.67
2023-04-23T23:32:15.340Z,58.66
2023-04-23T23:34:43.252Z,58.62
2023-04-23T23:37:11.363Z,58.58
2023-04-23T23:39:39.189Z,58.63
2023-04-23T23:42:06.966Z,58.67
2023-04-23T23:44:36.383Z,58.61
2023-04-23T23:47:04.310Z,58.58
2023-04-23T23:49:32.522Z,58.57
2023-04-23T23:52:00.285Z,58.65
2023-04-23T23:54:28.043Z,58.61
2023-04-23T23:56:57.448Z,58.69
2023-04-23T23:59:26.019Z,58.60
